createdAt,value
2019-02-28T00:00:11.168Z,59.50
2019-02-28T00:01:20.984Z,59.60
2019-02-28T00:02:28.391Z,59.60
2019-02-28T00:03:32.508Z,59.80
2019-02-28T00:04:36.603Z,59.80
2019-02-28T00:05:40.747Z,59.80
2019-02-28T00:06:45.201Z,59.90
2019-02-28T00:07:49.778Z,60.00
2019-02-28T00:08:54.734Z,60.10
2019-02-28T00:09:58.919Z,60.10
2019-02-28T00:11:05.021Z,60.20
2019-02-28T00:12:10.216Z,60.30
2019-02-28T00:13:14.702Z,60.50
2019-02-28T00:14:18.811Z,60.60
2019-02-28T00:15:22.989Z,60.70
2019-02-28T00:16:27.087Z,60.80
2019-02-28T00:17:31.479Z,60.90
2019-02-28T00:18:35.615Z,60.90
2019-02-28T00:19:40.195Z,61.00
2019-02-28T00:20:44.325Z,61.10
2019-02-28T00:21:48.475Z,61.30
2019-02-28T00:22:52.687Z,61.20
2019-02-28T00:23:57.524Z,61.30
2019-02-28T00:25:04.382Z,61.40
2019-02-28T00:26:11.392Z,61.50
2019-02-28T00:27:13.356Z,61.60
2019-02-28T00:28:17.778Z,61.80
2019-02-28T00:29:22.004Z,61.80
2019-02-28T00:30:26.845Z,61.80
2019-02-28T00:31:31.312Z,61.90
2019-02-28T00:32:35.706Z,62.60
2019-02-28T00:33:39.867Z,62.10
2019-02-28T00:34:44.355Z,62.20
2019-02-28T00:35:48.725Z,62.30
2019-02-28T00:36:53.443Z,62.30
2019-02-28T00:37:58.230Z,63.00
2019-02-28T00:39:04.102Z,62.40
2019-02-28T00:40:08.639Z,62.40
2019-02-28T00:41:12.745Z,62.50
2019-02-28T00:42:17.684Z,62.50
2019-02-28T00:43:25.123Z,62.50
2019-02-28T00:44:31.231Z,62.50
2019-02-28T00:45:37.123Z,62.50
2019-02-28T00:46:43.988Z,62.50
2019-02-28T00:47:47.444Z,62.60
2019-02-28T00:48:52.966Z,62.70
2019-02-28T00:49:57.399Z,63.30
2019-02-28T00:51:01.642Z,62.70
2019-02-28T00:52:05.785Z,62.90
2019-02-28T00:53:09.983Z,63.50
2019-02-28T00:54:14.365Z,62.90
2019-02-28T00:55:18.522Z,63.60
2019-02-28T00:56:22.625Z,63.00
2019-02-28T00:57:26.835Z,63.10
2019-02-28T00:58:31.202Z,63.20
2019-02-28T00:59:38.733Z,63.40
2019-02-28T01:00:42.880Z,63.50
2019-02-28T01:01:47.365Z,63.60
2019-02-28T01:02:53.458Z,63.60
2019-02-28T01:03:57.990Z,64.40
2019-02-28T01:05:04.979Z,63.80
2019-02-28T01:06:10.671Z,64.00
2019-02-28T01:07:16.283Z,64.00
2019-02-28T01:08:22.140Z,64.10
2019-02-28T01:09:27.156Z,64.30
2019-02-28T01:10:38.830Z,64.40
2019-02-28T01:11:38.810Z,64.60
2019-02-28T01:12:42.966Z,64.80
2019-02-28T01:13:47.063Z,64.90
2019-02-28T01:14:51.575Z,64.90
2019-02-28T01:15:55.712Z,65.00
2019-02-28T01:16:59.885Z,65.00
2019-02-28T01:18:03.958Z,65.10
2019-02-28T01:19:09.073Z,65.20
2019-02-28T01:20:16.030Z,65.20
2019-02-28T01:21:23.667Z,65.20
2019-02-28T01:22:26.987Z,65.20
2019-02-28T01:23:32.194Z,65.30
2019-02-28T01:24:36.307Z,65.30
2019-02-28T01:25:40.940Z,65.40
2019-02-28T01:26:46.768Z,65.40
2019-02-28T01:27:52.420Z,65.40
2019-02-28T01:29:01.480Z,65.50
2019-02-28T01:30:02.750Z,65.50
2019-02-28T01:31:06.868Z,65.60
2019-02-28T01:32:15.297Z,65.60
2019-02-28T01:33:16.799Z,65.60
2019-02-28T01:34:20.907Z,65.80
2019-02-28T01:35:25.376Z,65.80
2019-02-28T01:36:29.532Z,65.80
2019-02-28T01:37:33.664Z,65.90
2019-02-28T01:38:37.782Z,65.90
2019-02-28T01:39:41.979Z,65.90
2019-02-28T01:40:46.167Z,66.00
2019-02-28T01:41:50.256Z,66.00
2019-02-28T01:42:55.128Z,66.00
2019-02-28T01:44:01.698Z,66.20
2019-02-28T01:45:06.997Z,66.30
2019-02-28T01:46:11.180Z,66.30
2019-02-28T01:47:15.394Z,66.40
2019-02-28T01:48:22.599Z,66.50
2019-02-28T01:49:26.887Z,66.60
2019-02-28T01:50:31.111Z,66.80
2019-02-28T01:51:36.589Z,66.80
2019-02-28T01:52:44.521Z,67.00
2019-02-28T01:53:46.754Z,67.20
2019-02-28T01:54:50.887Z,68.00
2019-02-28T01:55:54.997Z,67.50
2019-02-28T01:56:59.187Z,67.60
2019-02-28T01:58:03.283Z,67.80
2019-02-28T01:59:07.366Z,67.80
2019-02-28T02:00:13.192Z,68.60
2019-02-28T02:01:17.341Z,68.00
2019-02-28T02:02:21.513Z,68.70
2019-02-28T02:03:25.631Z,68.10
2019-02-28T02:04:29.733Z,68.10
2019-02-28T02:05:34.192Z,68.10
2019-02-28T02:06:38.546Z,68.20
2019-02-28T02:07:42.670Z,68.20
2019-02-28T02:08:46.778Z,68.30
2019-02-28T02:09:51.180Z,68.40
2019-02-28T02:10:56.162Z,69.10
2019-02-28T02:12:00.322Z,68.50
2019-02-28T02:13:04.522Z,68.60
2019-02-28T02:14:11.076Z,68.60
2019-02-28T02:15:16.885Z,68.70
2019-02-28T02:16:20.380Z,68.80
2019-02-28T02:17:24.495Z,68.80
2019-02-28T02:18:28.627Z,68.90
2019-02-28T02:19:32.719Z,68.90
2019-02-28T02:20:36.867Z,69.00
2019-02-28T02:21:40.976Z,69.10
2019-02-28T02:22:45.457Z,69.30
2019-02-28T02:23:52.955Z,69.50
2019-02-28T02:24:55.575Z,69.70
2019-02-28T02:25:59.688Z,69.70
2019-02-28T02:27:03.879Z,70.40
2019-02-28T02:28:08.255Z,69.80
2019-02-28T02:29:12.362Z,69.80
2019-02-28T02:30:18.705Z,69.80
2019-02-28T02:31:27.246Z,69.80
2019-02-28T02:32:28.696Z,69.80
2019-02-28T02:33:32.816Z,70.00
2019-02-28T02:34:36.961Z,69.90
2019-02-28T02:35:42.768Z,70.00
2019-02-28T02:36:53.123Z,70.00
2019-02-28T02:37:52.923Z,70.00
2019-02-28T02:38:57.361Z,70.10
2019-02-28T02:40:01.847Z,70.20
2019-02-28T02:41:06.261Z,70.30
2019-02-28T02:42:11.695Z,70.40
2019-02-28T02:43:15.907Z,70.50
2019-02-28T02:44:20.032Z,70.60
2019-02-28T02:45:24.579Z,70.70
2019-02-28T02:46:28.675Z,70.80
2019-02-28T02:47:32.787Z,70.90
2019-02-28T02:48:38.509Z,71.00
2019-02-28T02:49:42.704Z,70.90
2019-02-28T02:50:46.808Z,71.10
2019-02-28T02:51:50.900Z,71.10
2019-02-28T02:52:55.015Z,71.20
2019-02-28T02:53:59.458Z,71.30
2019-02-28T02:55:03.613Z,71.40
2019-02-28T02:56:07.716Z,71.40
2019-02-28T02:57:14.042Z,71.50
2019-02-28T02:58:17.643Z,71.50
2019-02-28T02:59:21.734Z,71.50
2019-02-28T03:00:25.859Z,71.50
2019-02-28T03:01:30.107Z,71.60
2019-02-28T03:02:34.343Z,71.70
2019-02-28T03:03:42.707Z,71.70
2019-02-28T03:04:44.335Z,71.80
2019-02-28T03:05:48.420Z,72.90
2019-02-28T03:06:52.512Z,71.90
2019-02-28T03:07:59.799Z,73.00
2019-02-28T03:09:02.491Z,73.10
2019-02-28T03:10:07.256Z,73.10
2019-02-28T03:11:11.447Z,73.20
2019-02-28T03:12:15.696Z,73.20
2019-02-28T03:13:20.160Z,73.30
2019-02-28T03:14:24.236Z,73.40
2019-02-28T03:15:28.587Z,74.10
2019-02-28T03:16:33.367Z,73.50
2019-02-28T03:17:38.768Z,73.60
2019-02-28T03:18:42.857Z,73.70
2019-02-28T03:19:46.999Z,73.80
2019-02-28T03:20:51.437Z,73.80
2019-02-28T03:21:55.536Z,73.90
2019-02-28T03:23:02.015Z,73.90
2019-02-28T03:24:05.492Z,74.10
2019-02-28T03:25:10.488Z,74.10
2019-02-28T03:26:14.602Z,74.90
2019-02-28T03:27:19.996Z,74.30
2019-02-28T03:28:24.339Z,74.40
2019-02-28T03:29:28.445Z,74.50
2019-02-28T03:30:33.618Z,74.60
2019-02-28T03:31:38.084Z,74.70
2019-02-28T03:32:42.825Z,74.80
2019-02-28T03:33:47.182Z,74.90
2019-02-28T03:34:58.190Z,75.10
2019-02-28T03:35:57.237Z,75.10
2019-02-28T03:37:01.355Z,75.10
2019-02-28T03:38:10.762Z,75.10
2019-02-28T03:39:11.413Z,75.10
2019-02-28T03:40:15.514Z,75.10
2019-02-28T03:41:19.743Z,75.10
2019-02-28T03:42:28.532Z,75.10
2019-02-28T03:43:29.726Z,75.20
2019-02-28T03:44:33.830Z,75.30
2019-02-28T03:45:38.175Z,75.30
2019-02-28T03:46:46.404Z,75.40
2019-02-28T03:47:48.125Z,75.50
2019-02-28T03:48:52.347Z,75.50
2019-02-28T03:49:56.443Z,75.60
2019-02-28T03:51:00.620Z,75.60
2019-02-28T03:52:06.631Z,75.60
2019-02-28T03:53:10.606Z,75.60
2019-02-28T03:54:14.712Z,75.60
2019-02-28T03:55:18.804Z,75.60
2019-02-28T03:56:22.929Z,75.60
2019-02-28T03:57:29.319Z,75.70
2019-02-28T03:58:33.182Z,75.70
2019-02-28T03:59:37.318Z,75.80
2019-02-28T04:00:41.715Z,75.90
2019-02-28T04:01:46.547Z,76.10
2019-02-28T04:02:56.625Z,76.10
2019-02-28T04:03:56.687Z,76.20
2019-02-28T04:05:01.064Z,76.30
2019-02-28T04:06:05.187Z,76.40
2019-02-28T04:07:15.556Z,76.60
2019-02-28T04:08:15.417Z,76.60
2019-02-28T04:09:19.564Z,76.70
2019-02-28T04:10:23.674Z,76.80
2019-02-28T04:11:31.152Z,76.80
2019-02-28T04:12:33.660Z,76.90
2019-02-28T04:13:37.833Z,76.90
2019-02-28T04:14:42.145Z,76.90
2019-02-28T04:16:01.433Z,77.00
2019-02-28T04:16:54.141Z,77.00
2019-02-28T04:17:57.872Z,77.00
2019-02-28T04:19:01.960Z,77.00
2019-02-28T04:20:06.142Z,77.10
2019-02-28T04:21:12.043Z,77.70
2019-02-28T04:22:19.422Z,77.30
2019-02-28T04:23:21.886Z,77.30
2019-02-28T04:24:26.072Z,77.50
2019-02-28T04:25:30.279Z,78.10
2019-02-28T04:26:34.445Z,77.50
2019-02-28T04:27:40.397Z,77.60
2019-02-28T04:28:44.392Z,77.60
2019-02-28T04:29:48.514Z,77.70
2019-02-28T04:30:52.639Z,77.70
2019-02-28T04:31:58.104Z,77.70
2019-02-28T04:33:02.521Z,77.70
2019-02-28T04:34:13.099Z,77.70
2019-02-28T04:35:12.675Z,77.80
2019-02-28T04:36:16.804Z,77.90
2019-02-28T04:37:20.916Z,78.00
2019-02-28T04:38:25.018Z,78.00
2019-02-28T04:39:29.119Z,78.00
2019-02-28T04:40:33.300Z,78.10
2019-02-28T04:41:37.406Z,78.20
2019-02-28T04:42:41.523Z,78.20
2019-02-28T04:43:45.694Z,78.30
2019-02-28T04:44:51.958Z,78.30
2019-02-28T04:45:57.698Z,78.40
2019-02-28T04:47:03.479Z,78.50
2019-02-28T04:48:07.380Z,78.60
2019-02-28T04:49:11.500Z,78.80
2019-02-28T04:50:15.593Z,79.00
2019-02-28T04:51:19.730Z,79.10
2019-02-28T04:52:23.847Z,79.40
2019-02-28T04:53:28.023Z,79.60
2019-02-28T04:54:32.129Z,79.90
2019-02-28T04:55:37.154Z,80.20
2019-02-28T04:56:45.504Z,80.70
2019-02-28T04:57:48.311Z,81.00
2019-02-28T04:58:52.656Z,81.30
2019-02-28T04:59:57.127Z,81.50
2019-02-28T05:01:01.507Z,82.40
2019-02-28T05:02:05.631Z,82.00
2019-02-28T05:03:09.715Z,82.70
2019-02-28T05:04:13.840Z,82.30
2019-02-28T05:05:18.083Z,82.50
2019-02-28T05:06:22.195Z,82.80
2019-02-28T05:07:29.692Z,83.00
2019-02-28T05:08:32.130Z,83.40
2019-02-28T05:09:36.219Z,83.70
2019-02-28T05:10:40.345Z,83.80
2019-02-28T05:11:44.495Z,84.00
2019-02-28T05:12:48.715Z,84.00
2019-02-28T05:13:52.815Z,84.10
2019-02-28T05:14:58.492Z,84.80
2019-02-28T05:16:02.708Z,84.20
2019-02-28T05:17:06.819Z,84.30
2019-02-28T05:18:10.939Z,84.30
2019-02-28T05:19:15.278Z,84.40
2019-02-28T05:20:19.379Z,84.30
2019-02-28T05:21:23.488Z,84.30
2019-02-28T05:22:28.648Z,84.30
2019-02-28T05:23:35.775Z,84.40
2019-02-28T05:24:39.386Z,84.50
2019-02-28T05:25:44.654Z,84.60
2019-02-28T05:26:48.747Z,84.70
2019-02-28T05:27:52.876Z,85.50
2019-02-28T05:28:57.055Z,85.20
2019-02-28T05:30:01.179Z,85.40
2019-02-28T05:31:05.351Z,85.60
2019-02-28T05:32:09.453Z,85.80
2019-02-28T05:33:13.819Z,86.00
2019-02-28T05:34:17.909Z,86.10
2019-02-28T05:35:25.162Z,86.20
2019-02-28T05:36:27.815Z,86.20
2019-02-28T05:37:31.932Z,86.30
2019-02-28T05:38:36.340Z,86.50
2019-02-28T05:39:40.479Z,86.50
2019-02-28T05:40:44.570Z,86.60
2019-02-28T05:41:49.466Z,86.90
2019-02-28T05:42:54.711Z,87.00
2019-02-28T05:44:00.065Z,87.10
2019-02-28T05:45:04.499Z,87.30
2019-02-28T05:46:08.591Z,87.60
2019-02-28T05:47:12.771Z,88.10
2019-02-28T05:48:16.899Z,88.30
2019-02-28T05:49:21.269Z,88.50
2019-02-28T05:50:25.371Z,88.80
2019-02-28T05:51:29.487Z,89.00
2019-02-28T05:52:34.409Z,89.30
2019-02-28T05:53:41.250Z,89.60
2019-02-28T05:54:47.188Z,89.90
2019-02-28T05:55:50.345Z,90.00
2019-02-28T05:56:54.507Z,90.10
2019-02-28T05:57:58.711Z,90.20
2019-02-28T05:59:02.826Z,90.30
2019-02-28T06:00:07.487Z,90.40
2019-02-28T06:01:11.917Z,90.80
2019-02-28T06:02:18.994Z,90.50
2019-02-28T06:03:22.617Z,90.50
2019-02-28T06:04:26.749Z,90.50
2019-02-28T06:05:30.894Z,90.50
2019-02-28T06:06:34.989Z,90.50
2019-02-28T06:07:39.106Z,90.50
2019-02-28T06:08:43.472Z,90.60
2019-02-28T06:09:48.675Z,90.60
2019-02-28T06:10:56.062Z,90.50
2019-02-28T06:11:59.269Z,90.50
2019-02-28T06:13:03.375Z,90.50
2019-02-28T06:14:07.459Z,90.50
2019-02-28T06:15:11.600Z,90.50
2019-02-28T06:16:16.246Z,90.50
2019-02-28T06:17:20.821Z,90.50
2019-02-28T06:18:32.705Z,90.50
2019-02-28T06:19:34.782Z,90.50
2019-02-28T06:20:38.889Z,90.50
2019-02-28T06:21:42.984Z,90.50
2019-02-28T06:22:47.168Z,90.40
2019-02-28T06:23:51.286Z,90.40
2019-02-28T06:24:55.400Z,90.40
2019-02-28T06:26:04.356Z,90.40
2019-02-28T06:27:08.524Z,90.50
2019-02-28T06:28:21.313Z,90.50
2019-02-28T06:29:25.410Z,90.60
2019-02-28T06:30:29.567Z,90.70
2019-02-28T06:31:34.463Z,90.70
2019-02-28T06:32:38.997Z,90.80
2019-02-28T06:33:43.692Z,91.00
2019-02-28T06:34:48.098Z,91.10
2019-02-28T06:35:53.584Z,91.20
2019-02-28T06:37:00.382Z,91.30
2019-02-28T06:38:06.819Z,91.40
2019-02-28T06:39:11.937Z,91.50
2019-02-28T06:40:16.128Z,91.60
2019-02-28T06:41:20.252Z,91.60
2019-02-28T06:42:24.412Z,91.60
2019-02-28T06:43:28.508Z,91.60
2019-02-28T06:44:34.505Z,91.60
2019-02-28T06:45:38.728Z,91.60
2019-02-28T06:46:43.107Z,91.60
2019-02-28T06:47:49.585Z,91.60
2019-02-28T06:48:54.300Z,91.60
2019-02-28T06:49:58.444Z,91.70
2019-02-28T06:51:02.667Z,91.70
2019-02-28T06:52:07.163Z,91.70
2019-02-28T06:53:11.266Z,91.70
2019-02-28T06:54:15.631Z,91.70
2019-02-28T06:55:23.292Z,91.80
2019-02-28T06:56:28.107Z,91.80
2019-02-28T06:57:33.080Z,91.80
2019-02-28T06:58:37.545Z,92.10
2019-02-28T06:59:42.186Z,91.90
2019-02-28T07:00:47.346Z,92.00
2019-02-28T07:01:56.552Z,92.00
2019-02-28T07:02:58.095Z,92.00
2019-02-28T07:04:02.189Z,92.10
2019-02-28T07:05:06.544Z,92.10
2019-02-28T07:06:11.952Z,92.20
2019-02-28T07:07:16.631Z,92.30
2019-02-28T07:08:24.935Z,92.40
2019-02-28T07:09:26.533Z,92.50
2019-02-28T07:10:31.655Z,92.50
2019-02-28T07:11:35.791Z,92.50
2019-02-28T07:12:39.990Z,92.50
2019-02-28T07:13:44.127Z,92.50
2019-02-28T07:14:50.791Z,92.50
2019-02-28T07:15:55.559Z,92.80
2019-02-28T07:17:02.092Z,92.50
2019-02-28T07:18:06.189Z,92.60
2019-02-28T07:19:10.284Z,92.60
2019-02-28T07:20:14.629Z,92.60
2019-02-28T07:21:18.787Z,92.60
2019-02-28T07:22:23.167Z,92.80
2019-02-28T07:23:29.927Z,92.50
2019-02-28T07:24:37.217Z,92.50
2019-02-28T07:25:39.248Z,92.60
2019-02-28T07:26:43.363Z,92.60
2019-02-28T07:27:47.480Z,92.50
2019-02-28T07:28:51.605Z,92.60
2019-02-28T07:29:55.756Z,92.50
2019-02-28T07:31:00.501Z,92.80
2019-02-28T07:32:07.403Z,92.40
2019-02-28T07:33:11.568Z,92.40
2019-02-28T07:34:19.590Z,92.30
2019-02-28T07:35:21.490Z,92.40
2019-02-28T07:36:25.594Z,92.30
2019-02-28T07:37:29.704Z,92.30
2019-02-28T07:38:34.101Z,92.30
2019-02-28T07:39:40.277Z,92.30
2019-02-28T07:40:45.705Z,92.30
2019-02-28T07:41:49.947Z,92.30
2019-02-28T07:42:54.077Z,92.30
2019-02-28T07:43:59.065Z,92.30
2019-02-28T07:45:03.347Z,92.30
2019-02-28T07:46:08.724Z,92.20
2019-02-28T07:47:17.142Z,92.20
2019-02-28T07:48:18.825Z,92.20
2019-02-28T07:49:25.675Z,92.20
2019-02-28T07:50:28.742Z,92.20
2019-02-28T07:51:32.919Z,92.20
2019-02-28T07:52:37.042Z,92.20
2019-02-28T07:53:42.075Z,92.20
2019-02-28T07:54:47.451Z,92.20
2019-02-28T07:55:52.038Z,92.20
2019-02-28T07:56:58.403Z,92.20
2019-02-28T07:58:02.581Z,92.20
2019-02-28T07:59:08.671Z,92.30
2019-02-28T08:00:18.225Z,92.50
2019-02-28T08:01:24.444Z,92.20
2019-02-28T08:02:27.118Z,92.20
2019-02-28T08:03:31.311Z,92.30
2019-02-28T08:04:35.528Z,92.30
2019-02-28T08:05:40.710Z,92.30
2019-02-28T08:06:44.835Z,92.30
2019-02-28T08:07:52.646Z,91.80
2019-02-28T08:08:58.036Z,91.80
2019-02-28T08:10:02.172Z,91.80
2019-02-28T08:11:06.327Z,91.80
2019-02-28T08:12:12.159Z,91.80
2019-02-28T08:13:17.951Z,91.80
2019-02-28T08:14:22.128Z,91.80
2019-02-28T08:15:26.227Z,91.80
2019-02-28T08:16:30.592Z,92.20
2019-02-28T08:17:36.243Z,91.80
2019-02-28T08:18:40.439Z,91.80
2019-02-28T08:19:44.583Z,91.80
2019-02-28T08:20:48.719Z,92.10
2019-02-28T08:21:52.880Z,91.80
2019-02-28T08:22:57.798Z,91.70
2019-02-28T08:24:02.503Z,91.70
2019-02-28T08:25:08.816Z,91.70
2019-02-28T08:26:15.456Z,91.70
2019-02-28T08:27:18.796Z,91.60
2019-02-28T08:28:25.076Z,91.60
2019-02-28T08:29:29.207Z,91.60
2019-02-28T08:30:33.378Z,91.60
2019-02-28T08:31:37.498Z,91.50
2019-02-28T08:32:43.937Z,91.40
2019-02-28T08:33:49.105Z,91.40
2019-02-28T08:34:58.495Z,91.40
2019-02-28T08:35:59.274Z,91.30
2019-02-28T08:37:03.372Z,91.20
2019-02-28T08:38:07.468Z,91.20
2019-02-28T08:39:16.139Z,91.20
2019-02-28T08:40:20.980Z,91.10
2019-02-28T08:41:25.709Z,91.10
2019-02-28T08:42:30.553Z,91.10
2019-02-28T08:43:39.105Z,91.00
2019-02-28T08:44:43.629Z,90.90
2019-02-28T08:45:50.823Z,90.90
2019-02-28T08:47:03.154Z,90.90
2019-02-28T08:48:46.422Z,90.80
2019-02-28T08:50:32.444Z,90.80
2019-02-28T08:51:45.717Z,90.60
2019-02-28T08:52:51.629Z,90.60
2019-02-28T08:53:56.473Z,90.50
2019-02-28T08:55:03.043Z,90.70
2019-02-28T08:56:11.036Z,90.30
2019-02-28T08:57:17.689Z,90.30
2019-02-28T08:58:24.562Z,90.20
2019-02-28T08:59:42.022Z,90.10
2019-02-28T09:00:54.552Z,90.00
2019-02-28T09:02:02.976Z,90.00
2019-02-28T09:03:14.200Z,89.80
2019-02-28T09:04:18.756Z,89.60
2019-02-28T09:05:35.971Z,89.40
2019-02-28T09:06:42.800Z,89.10
2019-02-28T09:07:52.937Z,88.90
2019-02-28T09:09:02.226Z,88.70
2019-02-28T09:10:11.777Z,88.70
2019-02-28T09:11:20.626Z,88.50
2019-02-28T09:12:23.128Z,88.30
2019-02-28T09:13:27.620Z,88.00
2019-02-28T09:14:32.245Z,87.90
2019-02-28T09:15:36.810Z,87.90
2019-02-28T09:16:49.278Z,87.70
2019-02-28T09:17:58.167Z,87.60
2019-02-28T09:19:02.978Z,88.10
2019-02-28T09:20:10.504Z,87.40
2019-02-28T09:21:18.404Z,87.10
2019-02-28T09:22:39.957Z,87.00
2019-02-28T09:23:47.346Z,87.00
2019-02-28T09:24:51.923Z,86.80
2019-02-28T09:26:10.481Z,86.60
2019-02-28T09:27:15.298Z,86.50
2019-02-28T09:28:20.977Z,86.50
2019-02-28T09:29:28.073Z,86.40
2019-02-28T09:30:41.957Z,86.30
2019-02-28T09:31:56.221Z,86.20
2019-02-28T09:33:01.994Z,86.10
2019-02-28T09:34:06.528Z,85.90
2019-02-28T09:35:14.408Z,85.80
2019-02-28T09:36:23.972Z,85.80
2019-02-28T09:37:34.555Z,85.50
2019-02-28T09:38:39.169Z,85.50
2019-02-28T09:39:45.263Z,85.10
2019-02-28T09:40:51.873Z,84.90
2019-02-28T09:41:58.706Z,84.50
2019-02-28T09:43:04.817Z,84.10
2019-02-28T09:44:15.069Z,83.90
2019-02-28T09:45:25.964Z,83.70
2019-02-28T09:46:32.918Z,83.30
2019-02-28T09:47:40.973Z,83.00
2019-02-28T09:48:47.466Z,82.90
2019-02-28T09:49:59.533Z,82.70
2019-02-28T09:51:07.996Z,82.70
2019-02-28T09:52:12.452Z,82.90
2019-02-28T09:53:22.497Z,82.90
2019-02-28T09:54:32.163Z,82.80
2019-02-28T09:55:45.376Z,82.60
2019-02-28T09:56:56.052Z,82.50
2019-02-28T09:58:02.559Z,83.00
2019-02-28T09:59:11.831Z,83.30
2019-02-28T10:00:27.607Z,83.30
2019-02-28T10:01:32.186Z,83.40
2019-02-28T10:02:45.581Z,83.50
2019-02-28T10:03:55.338Z,83.50
2019-02-28T10:05:07.477Z,83.80
2019-02-28T10:06:17.566Z,83.70
2019-02-28T10:07:23.334Z,84.20
2019-02-28T10:08:33.595Z,83.40
2019-02-28T10:09:44.358Z,83.60
2019-02-28T10:10:52.379Z,83.70
2019-02-28T10:11:58.870Z,83.50
2019-02-28T10:13:06.474Z,83.30
2019-02-28T10:14:17.065Z,83.40
2019-02-28T10:15:24.667Z,83.30
2019-02-28T10:16:34.782Z,83.50
2019-02-28T10:17:44.376Z,83.40
2019-02-28T10:18:48.882Z,84.10
2019-02-28T10:19:53.458Z,83.40
2019-02-28T10:21:02.754Z,83.40
2019-02-28T10:22:10.157Z,83.80
2019-02-28T10:23:18.384Z,83.70
2019-02-28T10:24:22.056Z,83.60
2019-02-28T10:25:26.161Z,83.60
2019-02-28T10:26:30.308Z,83.70
2019-02-28T10:27:36.725Z,83.50
2019-02-28T10:28:40.914Z,83.60
2019-02-28T10:29:45.029Z,83.90
2019-02-28T10:30:50.150Z,83.20
2019-02-28T10:31:54.930Z,83.10
2019-02-28T10:32:59.057Z,83.10
2019-02-28T10:34:03.179Z,82.90
2019-02-28T10:35:07.683Z,82.80
2019-02-28T10:36:13.014Z,82.80
2019-02-28T10:37:19.314Z,82.70
2019-02-28T10:38:23.494Z,82.80
2019-02-28T10:39:27.599Z,82.50
2019-02-28T10:40:31.718Z,82.00
2019-02-28T10:41:35.918Z,81.90
2019-02-28T10:42:41.281Z,81.90
2019-02-28T10:43:49.925Z,81.40
2019-02-28T10:44:51.443Z,81.10
2019-02-28T10:45:55.551Z,80.80
2019-02-28T10:46:59.652Z,80.50
2019-02-28T10:48:04.108Z,80.40
2019-02-28T10:49:08.250Z,79.60
2019-02-28T10:50:14.975Z,79.30
2019-02-28T10:51:19.094Z,78.90
2019-02-28T10:52:23.529Z,78.90
2019-02-28T10:53:29.615Z,78.80
2019-02-28T10:54:33.888Z,78.40
2019-02-28T10:55:38.004Z,78.20
2019-02-28T10:56:42.186Z,78.20
2019-02-28T10:57:46.301Z,78.10
2019-02-28T10:58:51.051Z,78.10
2019-02-28T10:59:58.170Z,78.30
2019-02-28T11:01:01.188Z,78.20
2019-02-28T11:02:05.286Z,78.10
2019-02-28T11:03:09.389Z,78.10
2019-02-28T11:04:13.475Z,77.50
2019-02-28T11:05:20.126Z,76.90
2019-02-28T11:06:25.272Z,76.90
2019-02-28T11:07:30.067Z,76.70
2019-02-28T11:08:34.184Z,76.50
2019-02-28T11:09:38.375Z,76.10
2019-02-28T11:10:42.706Z,75.90
2019-02-28T11:11:46.820Z,75.90
2019-02-28T11:12:50.985Z,75.90
2019-02-28T11:13:55.067Z,75.90
2019-02-28T11:14:59.222Z,76.00
2019-02-28T11:16:03.370Z,76.00
2019-02-28T11:17:13.408Z,76.30
2019-02-28T11:18:13.307Z,76.40
2019-02-28T11:19:19.430Z,76.40
2019-02-28T11:20:26.229Z,76.00
2019-02-28T11:21:30.406Z,76.10
2019-02-28T11:22:36.496Z,76.00
2019-02-28T11:23:40.539Z,76.10
2019-02-28T11:24:44.667Z,76.10
2019-02-28T11:25:48.797Z,76.20
2019-02-28T11:26:53.025Z,76.20
2019-02-28T11:27:57.259Z,76.20
2019-02-28T11:29:03.164Z,76.30
2019-02-28T11:30:09.980Z,76.50
2019-02-28T11:31:13.263Z,76.60
2019-02-28T11:32:17.378Z,76.40
2019-02-28T11:33:22.862Z,76.60
2019-02-28T11:34:27.105Z,76.60
2019-02-28T11:35:31.488Z,77.20
2019-02-28T11:36:35.806Z,76.70
2019-02-28T11:37:42.364Z,76.60
2019-02-28T11:38:45.968Z,76.60
2019-02-28T11:39:50.175Z,76.90
2019-02-28T11:40:57.323Z,77.00
2019-02-28T11:42:00.164Z,77.00
2019-02-28T11:43:04.481Z,77.20
2019-02-28T11:44:09.294Z,77.30
2019-02-28T11:45:18.516Z,77.40
2019-02-28T11:46:22.479Z,77.40
2019-02-28T11:47:26.712Z,77.20
2019-02-28T11:48:30.844Z,77.40
2019-02-28T11:49:34.986Z,77.10
2019-02-28T11:50:42.425Z,77.70
2019-02-28T11:51:44.911Z,77.10
2019-02-28T11:52:49.034Z,77.10
2019-02-28T11:53:53.147Z,76.70
2019-02-28T11:54:57.256Z,76.70
2019-02-28T11:56:01.338Z,76.80
2019-02-28T11:57:06.821Z,77.00
2019-02-28T11:58:16.320Z,77.30
2019-02-28T11:59:16.932Z,77.40
2019-02-28T12:00:27.555Z,77.50
2019-02-28T12:01:31.660Z,77.70
2019-02-28T12:02:35.756Z,77.90
2019-02-28T12:03:39.874Z,78.00
2019-02-28T12:04:44.004Z,77.70
2019-02-28T12:05:50.620Z,77.90
2019-02-28T12:06:53.915Z,77.80
2019-02-28T12:07:58.012Z,77.60
2019-02-28T12:09:02.123Z,76.90
2019-02-28T12:10:06.325Z,77.60
2019-02-28T12:11:10.487Z,76.80
2019-02-28T12:12:14.630Z,76.70
2019-02-28T12:13:19.594Z,77.00
2019-02-28T12:14:26.443Z,77.10
2019-02-28T12:15:30.625Z,77.00
2019-02-28T12:16:35.323Z,76.70
2019-02-28T12:17:45.646Z,76.50
2019-02-28T12:18:54.562Z,76.60
2019-02-28T12:20:03.755Z,76.70
2019-02-28T12:21:08.777Z,76.80
2019-02-28T12:22:17.233Z,76.60
2019-02-28T12:23:23.487Z,77.00
2019-02-28T12:24:40.007Z,77.30
2019-02-28T12:25:44.462Z,78.00
2019-02-28T12:26:52.724Z,77.70
2019-02-28T12:28:02.594Z,77.90
2019-02-28T12:29:14.890Z,77.90
2019-02-28T12:30:27.239Z,78.20
2019-02-28T12:31:49.567Z,78.40
2019-02-28T12:32:55.244Z,78.70
2019-02-28T12:34:02.227Z,78.90
2019-02-28T12:35:18.945Z,78.90
2019-02-28T12:36:27.633Z,79.10
2019-02-28T12:37:36.466Z,79.20
2019-02-28T12:38:46.057Z,79.60
2019-02-28T12:39:50.477Z,79.60
2019-02-28T12:40:58.030Z,80.00
2019-02-28T12:42:06.739Z,81.00
2019-02-28T12:43:13.463Z,80.60
2019-02-28T12:44:20.573Z,81.00
2019-02-28T12:45:32.001Z,81.80
2019-02-28T12:46:49.801Z,82.00
2019-02-28T12:47:56.768Z,83.30
2019-02-28T12:49:15.780Z,84.10
2019-02-28T12:50:24.301Z,84.20
2019-02-28T12:51:30.905Z,84.50
2019-02-28T12:52:51.187Z,85.40
2019-02-28T12:53:59.233Z,85.30
2019-02-28T12:55:14.166Z,85.90
2019-02-28T12:56:22.243Z,86.70
2019-02-28T12:57:29.996Z,87.00
2019-02-28T12:58:38.969Z,87.50
2019-02-28T13:00:00.029Z,88.60
2019-02-28T13:01:00.015Z,88.10
2019-02-28T13:02:08.422Z,88.00
2019-02-28T13:03:19.210Z,88.10
2019-02-28T13:04:32.600Z,88.20
2019-02-28T13:05:37.944Z,88.40
2019-02-28T13:06:42.360Z,88.80
2019-02-28T13:07:50.663Z,89.50
2019-02-28T13:09:00.817Z,88.90
2019-02-28T13:10:15.811Z,89.30
2019-02-28T13:11:20.252Z,89.70
2019-02-28T13:12:32.213Z,90.00
2019-02-28T13:13:39.753Z,90.30
2019-02-28T13:14:58.834Z,90.20
2019-02-28T13:16:05.210Z,90.70
2019-02-28T13:17:18.848Z,90.60
2019-02-28T13:18:26.884Z,90.80
2019-02-28T13:19:40.681Z,91.00
2019-02-28T13:20:53.030Z,91.20
2019-02-28T13:22:10.675Z,91.50
2019-02-28T13:23:18.577Z,91.80
2019-02-28T13:24:33.158Z,92.00
2019-02-28T13:25:39.983Z,92.50
2019-02-28T13:26:47.570Z,92.30
2019-02-28T13:27:55.685Z,92.40
2019-02-28T13:29:05.555Z,92.60
2019-02-28T13:30:26.507Z,92.70
2019-02-28T13:31:35.574Z,92.90
2019-02-28T13:32:46.031Z,93.10
2019-02-28T13:33:53.709Z,93.50
2019-02-28T13:35:02.975Z,93.70
2019-02-28T13:36:18.231Z,94.00
2019-02-28T13:37:23.509Z,94.10
2019-02-28T13:38:32.284Z,94.20
2019-02-28T13:39:41.095Z,94.30
2019-02-28T13:40:50.349Z,94.50
2019-02-28T13:42:09.414Z,94.70
2019-02-28T13:43:28.706Z,94.80
2019-02-28T13:44:38.293Z,94.90
2019-02-28T13:46:07.967Z,94.90
2019-02-28T13:47:24.656Z,94.90
2019-02-28T13:48:39.546Z,95.10
2019-02-28T13:49:49.815Z,95.20
2019-02-28T13:51:08.029Z,95.10
2019-02-28T13:52:20.554Z,95.20
2019-02-28T13:53:27.155Z,95.00
2019-02-28T13:54:34.555Z,94.90
2019-02-28T13:55:59.540Z,94.90
2019-02-28T13:57:08.160Z,94.90
2019-02-28T13:58:10.536Z,94.90
2019-02-28T13:59:15.526Z,94.90
2019-02-28T14:00:24.595Z,95.00
2019-02-28T14:01:28.726Z,94.90
2019-02-28T14:02:33.792Z,94.90
2019-02-28T14:03:38.330Z,94.90
2019-02-28T14:04:42.484Z,94.90
2019-02-28T14:05:46.731Z,95.00
2019-02-28T14:06:52.507Z,95.20
2019-02-28T14:07:56.767Z,95.40
2019-02-28T14:09:00.867Z,95.50